Time;durP1;ratioP1;P1;durP2;ratioP2;P2;SDS_P1;SDS_P2;PMS_P1;PMS_P2;Temp;Humidity;BMP_temperature;BMP_pressure;BME280_temperature;BME280_humidity;BME280_pressure;Samples;Min_cycle;Max_cycle;Signal;HPM_P1;HPM_P2
2020/12/29 00:01:34;;;;;;;17.25;10.68;;;2.20;99.90;;;;;;5038938;28;20095;-50
2020/12/29 00:04:00;;;;;;;21.92;12.55;;;2.20;99.90;;;;;;5041012;28;20031;-46
2020/12/29 00:06:26;;;;;;;25.40;12.27;;;2.20;99.90;;;;;;5044064;28;20044;-45
2020/12/29 00:08:51;;;;;;;23.90;11.88;;;2.20;99.90;;;;;;5044244;28;20382;-47
2020/12/29 00:11:17;;;;;;;23.70;13.00;;;2.20;99.90;;;;;;5042450;28;20071;-45
2020/12/29 00:13:43;;;;;;;23.38;12.40;;;2.20;99.90;;;;;;5043449;28;20022;-47
2020/12/29 00:16:08;;;;;;;25.20;13.70;;;2.10;99.90;;;;;;5042083;28;20039;-47
2020/12/29 00:18:35;;;;;;;27.70;13.43;;;2.10;99.90;;;;;;5037814;28;20383;-45
2020/12/29 00:21:01;;;;;;;31.40;14.98;;;2.10;99.90;;;;;;5039492;28;20490;-51
2020/12/29 00:23:27;;;;;;;20.27;11.45;;;2.00;99.90;;;;;;5031319;28;20017;-45
2020/12/29 00:25:52;;;;;;;21.20;11.35;;;2.00;99.90;;;;;;5037972;28;20033;-45
2020/12/29 00:28:18;;;;;;;21.27;11.63;;;2.00;99.90;;;;;;5041867;28;20017;-44
2020/12/29 00:30:43;;;;;;;22.65;11.73;;;2.00;99.90;;;;;;5039722;28;20072;-45
2020/12/29 00:33:09;;;;;;;27.17;13.30;;;1.90;99.90;;;;;;5040105;28;20037;-45
2020/12/29 00:35:34;;;;;;;22.25;12.15;;;1.90;99.90;;;;;;5033610;28;20025;-46
2020/12/29 00:38:00;;;;;;;25.63;12.93;;;1.90;99.90;;;;;;5036520;28;20420;-45
2020/12/29 00:40:25;;;;;;;24.90;13.98;;;1.90;99.90;;;;;;5039325;28;20039;-46
2020/12/29 00:42:51;;;;;;;24.55;12.90;;;1.90;99.90;;;;;;5034090;28;20114;-47
2020/12/29 00:45:16;;;;;;;18.15;10.15;;;1.80;99.90;;;;;;5034828;28;20031;-44
2020/12/29 00:47:42;;;;;;;23.00;12.00;;;1.90;99.90;;;;;;5036743;28;20060;-44
2020/12/29 00:50:07;;;;;;;26.05;14.18;;;1.80;99.90;;;;;;5037308;28;20037;-47
2020/12/29 00:52:33;;;;;;;22.80;12.05;;;1.80;99.90;;;;;;5035725;28;20021;-47
2020/12/29 00:54:58;;;;;;;25.67;12.90;;;1.80;99.90;;;;;;5032926;28;20025;-47
2020/12/29 00:57:24;;;;;;;26.30;13.00;;;1.80;99.90;;;;;;5033560;28;20071;-49
2020/12/29 00:59:49;;;;;;;33.40;15.45;;;1.70;99.90;;;;;;5035508;28;20061;-49
2020/12/29 01:02:15;;;;;;;31.95;16.60;;;1.70;99.90;;;;;;5036451;28;20095;-47
2020/12/29 01:04:40;;;;;;;24.10;12.80;;;1.70;99.90;;;;;;5033032;28;20047;-44
2020/12/29 01:07:06;;;;;;;25.45;14.23;;;1.70;99.90;;;;;;5031232;28;20026;-48
2020/12/29 01:09:31;;;;;;;29.02;14.48;;;1.70;99.90;;;;;;5039142;28;20029;-46
2020/12/29 01:11:57;;;;;;;27.38;15.43;;;1.60;99.90;;;;;;5037870;28;20047;-46
2020/12/29 01:14:22;;;;;;;35.95;18.33;;;1.70;99.90;;;;;;5031493;28;20083;-47
2020/12/29 01:16:48;;;;;;;28.42;14.30;;;1.70;99.90;;;;;;5031981;28;20025;-48
2020/12/29 01:19:14;;;;;;;26.55;14.88;;;1.70;99.90;;;;;;5035810;28;20040;-47
2020/12/29 01:21:39;;;;;;;29.85;16.33;;;1.70;99.90;;;;;;5031878;28;20029;-44
2020/12/29 01:24:05;;;;;;;31.85;16.25;;;1.70;99.90;;;;;;5029042;28;20033;-45
2020/12/29 01:26:30;;;;;;;24.77;12.85;;;1.70;99.90;;;;;;5047581;28;20100;-46
2020/12/29 01:28:56;;;;;;;34.45;17.88;;;1.70;99.90;;;;;;5039198;28;20116;-44
2020/12/29 01:31:28;;;;;;;22.88;12.70;;;1.80;99.90;;;;;;5037268;28;20022;-45
2020/12/29 01:33:54;;;;;;;26.63;14.30;;;1.80;99.90;;;;;;5030688;28;20032;-44
2020/12/29 01:36:20;;;;;;;30.55;12.95;;;1.80;99.90;;;;;;5031576;28;20398;-45
2020/12/29 01:38:46;;;;;;;30.23;14.38;;;1.90;99.90;;;;;;5045743;28;20021;-45
2020/12/29 01:41:11;;;;;;;26.45;12.75;;;1.80;99.90;;;;;;5038160;28;20024;-45
2020/12/29 01:43:37;;;;;;;27.13;13.25;;;1.80;99.90;;;;;;5031197;28;20029;-47
2020/12/29 01:46:02;;;;;;;25.48;13.30;;;1.80;99.90;;;;;;5030930;28;20037;-45
2020/12/29 01:48:28;;;;;;;27.20;14.85;;;1.90;99.90;;;;;;5038915;28;20417;-47
2020/12/29 01:50:54;;;;;;;27.38;14.10;;;1.80;99.90;;;;;;5037311;28;20053;-44
2020/12/29 01:53:19;;;;;;;29.92;14.38;;;1.80;99.90;;;;;;5034941;28;20171;-46
2020/12/29 01:55:45;;;;;;;28.42;13.45;;;1.70;99.90;;;;;;5039589;28;20108;-47
2020/12/29 01:58:11;;;;;;;28.08;14.73;;;1.70;99.90;;;;;;5038557;28;20052;-47
2020/12/29 02:00:37;;;;;;;30.92;14.75;;;1.70;99.90;;;;;;5039077;28;20026;-47
2020/12/29 02:03:03;;;;;;;27.77;15.80;;;1.70;99.90;;;;;;5034246;28;20037;-47
2020/12/29 02:05:30;;;;;;;28.17;14.95;;;1.70;99.90;;;;;;5039003;28;20033;-47
2020/12/29 02:07:56;;;;;;;29.58;14.45;;;1.60;99.90;;;;;;5039705;28;20021;-45
2020/12/29 02:10:22;;;;;;;25.77;13.68;;;1.70;99.90;;;;;;5038378;28;20064;-45
2020/12/29 02:12:47;;;;;;;30.88;14.43;;;1.60;99.90;;;;;;5037490;28;20375;-47
2020/12/29 02:15:13;;;;;;;38.30;19.45;;;1.60;99.90;;;;;;5040468;28;20025;-45
2020/12/29 02:17:39;;;;;;;31.85;14.98;;;1.60;99.90;;;;;;5033005;28;20021;-50
2020/12/29 02:20:05;;;;;;;27.25;14.48;;;1.70;99.90;;;;;;5037363;28;20040;-45
2020/12/29 02:22:31;;;;;;;30.63;13.85;;;1.60;99.90;;;;;;5041083;28;20386;-49
2020/12/29 02:25:03;;;;;;;34.10;16.77;;;1.60;99.90;;;;;;5037415;28;20029;-47
2020/12/29 02:27:30;;;;;;;30.77;15.63;;;1.70;99.90;;;;;;5042104;28;20056;-49
2020/12/29 02:29:57;;;;;;;29.80;17.15;;;1.70;99.90;;;;;;5036456;28;20026;-46
2020/12/29 02:32:24;;;;;;;33.67;17.45;;;1.70;99.90;;;;;;5039051;28;20116;-44
2020/12/29 02:34:50;;;;;;;32.28;16.02;;;1.70;99.90;;;;;;5035943;28;20505;-45
2020/12/29 02:37:17;;;;;;;32.50;16.40;;;1.70;99.90;;;;;;5038835;28;20031;-49
2020/12/29 02:39:48;;;;;;;35.47;17.65;;;1.70;99.90;;;;;;5037934;28;20034;-47
2020/12/29 02:42:14;;;;;;;37.75;18.10;;;1.70;99.90;;;;;;5040937;28;20036;-48
2020/12/29 02:44:39;;;;;;;30.98;15.40;;;1.80;99.90;;;;;;5034496;28;20037;-44
2020/12/29 02:47:05;;;;;;;25.08;12.75;;;1.80;99.90;;;;;;5032277;28;20040;-47
2020/12/29 02:49:34;;;;;;;35.60;15.75;;;1.80;99.90;;;;;;5040716;28;20084;-45
2020/12/29 02:52:01;;;;;;;27.65;13.82;;;1.80;99.90;;;;;;5040209;28;20068;-47
2020/12/29 02:54:26;;;;;;;24.38;12.75;;;1.80;99.90;;;;;;5033072;28;20104;-46
2020/12/29 02:56:54;;;;;;;21.33;11.95;;;1.70;99.90;;;;;;5033232;28;20112;-46
2020/12/29 02:59:20;;;;;;;23.95;12.52;;;1.60;99.90;;;;;;5038464;28;20457;-48
2020/12/29 03:01:46;;;;;;;28.83;15.32;;;1.60;99.90;;;;;;5039298;28;20064;-47
2020/12/29 03:04:11;;;;;;;34.58;15.85;;;1.60;99.90;;;;;;5032674;28;20034;-47
2020/12/29 03:06:36;;;;;;;37.65;20.15;;;1.60;99.90;;;;;;5036496;28;20033;-47
2020/12/29 03:09:03;;;;;;;31.98;16.75;;;1.60;99.90;;;;;;5033093;28;20044;-45
2020/12/29 03:11:29;;;;;;;31.75;13.90;;;1.70;99.90;;;;;;5038441;28;20135;-45
2020/12/29 03:13:57;;;;;;;29.23;14.25;;;1.70;99.90;;;;;;5037824;28;20032;-48
2020/12/29 03:16:23;;;;;;;28.92;14.10;;;1.70;99.90;;;;;;5033485;28;20025;-44
2020/12/29 03:18:48;;;;;;;27.25;14.05;;;1.70;99.90;;;;;;5029536;28;20055;-43
2020/12/29 03:21:14;;;;;;;33.42;17.60;;;1.80;99.90;;;;;;5036755;28;20486;-48
2020/12/29 03:23:40;;;;;;;35.05;18.48;;;1.70;99.90;;;;;;5036175;28;20036;-43
2020/12/29 03:26:05;;;;;;;43.97;20.58;;;1.60;99.90;;;;;;5039959;28;20025;-45
2020/12/29 03:28:31;;;;;;;35.08;17.48;;;1.40;99.90;;;;;;5040162;28;20029;-45
2020/12/29 03:30:59;;;;;;;44.50;20.08;;;1.30;99.90;;;;;;5036321;28;20108;-44
2020/12/29 03:33:24;;;;;;;32.47;15.90;;;1.10;99.90;;;;;;5034882;28;20075;-45
2020/12/29 03:35:50;;;;;;;38.58;18.10;;;1.10;99.90;;;;;;5040013;28;20032;-45
2020/12/29 03:38:16;;;;;;;48.65;23.15;;;1.00;99.90;;;;;;5041657;28;20025;-43
2020/12/29 03:40:42;;;;;;;41.47;20.23;;;1.10;99.90;;;;;;5032969;28;20025;-43
2020/12/29 03:43:12;;;;;;;40.67;20.83;;;1.20;99.90;;;;;;5037157;28;20028;-44
2020/12/29 03:45:39;;;;;;;34.47;17.75;;;1.20;99.90;;;;;;5034685;28;20548;-45
2020/12/29 03:48:05;;;;;;;46.38;20.35;;;1.30;99.90;;;;;;5030933;28;20033;-45
2020/12/29 03:50:32;;;;;;;41.85;21.52;;;1.30;99.90;;;;;;5021277;28;506088;-45
2020/12/29 03:52:57;;;;;;;44.47;21.70;;;1.30;99.90;;;;;;5033108;28;20067;-46
2020/12/29 03:55:23;;;;;;;53.05;25.20;;;1.40;99.90;;;;;;5036763;28;20042;-43
2020/12/29 03:57:48;;;;;;;42.53;21.30;;;1.40;99.90;;;;;;5037375;28;20401;-42
2020/12/29 04:00:13;;;;;;;35.78;16.95;;;1.40;99.90;;;;;;5032796;28;20056;-44
2020/12/29 04:02:39;;;;;;;27.92;13.30;;;1.50;99.90;;;;;;5033835;28;20033;-43
2020/12/29 04:05:04;;;;;;;35.70;17.40;;;1.50;99.90;;;;;;5033175;28;20323;-43
2020/12/29 04:07:30;;;;;;;30.70;16.25;;;1.60;99.90;;;;;;5035193;28;20022;-44
2020/12/29 04:09:55;;;;;;;36.92;20.38;;;1.60;99.90;;;;;;5038724;28;20112;-43
2020/12/29 04:12:21;;;;;;;36.83;17.67;;;1.70;99.90;;;;;;5032685;28;20382;-43
2020/12/29 04:14:46;;;;;;;39.65;22.40;;;1.70;99.90;;;;;;5039542;28;20043;-43
2020/12/29 04:17:12;;;;;;;34.35;19.83;;;1.80;99.90;;;;;;5032157;28;20052;-45
2020/12/29 04:19:37;;;;;;;34.40;17.63;;;1.80;99.90;;;;;;5032156;28;20029;-43
2020/12/29 04:22:03;;;;;;;47.20;22.92;;;1.80;99.90;;;;;;5032823;28;20067;-43
2020/12/29 04:24:29;;;;;;;39.95;19.90;;;1.90;99.90;;;;;;5045401;28;20104;-47
2020/12/29 04:26:54;;;;;;;30.88;15.85;;;1.90;99.90;;;;;;5039106;28;20364;-44
2020/12/29 04:29:19;;;;;;;36.05;19.67;;;1.90;99.90;;;;;;5038579;28;20025;-45
2020/12/29 04:31:47;;;;;;;32.67;19.40;;;1.90;99.90;;;;;;5040844;28;20017;-43
2020/12/29 04:34:12;;;;;;;37.38;17.52;;;1.90;99.90;;;;;;5040312;28;20532;-43
2020/12/29 04:36:38;;;;;;;31.77;16.25;;;1.90;99.90;;;;;;5037413;28;20053;-43
2020/12/29 04:39:03;;;;;;;33.85;17.75;;;2.00;99.90;;;;;;5037782;28;20025;-43
2020/12/29 04:41:29;;;;;;;46.50;24.52;;;2.00;99.90;;;;;;5041886;28;20059;-45
2020/12/29 04:43:56;;;;;;;29.90;16.10;;;2.00;99.90;;;;;;5032379;28;20957;-43
2020/12/29 04:46:21;;;;;;;23.90;13.07;;;2.00;99.90;;;;;;5032120;28;20026;-46
2020/12/29 04:48:47;;;;;;;26.05;12.70;;;2.00;99.90;;;;;;5036520;28;20045;-46
2020/12/29 04:51:15;;;;;;;26.38;13.20;;;2.00;99.90;;;;;;5040829;28;20050;-43
2020/12/29 04:53:55;;;;;;;31.38;16.38;;;2.10;99.90;;;;;;5036384;28;20029;-47
2020/12/29 04:56:26;;;;;;;28.98;14.75;;;2.10;99.90;;;;;;5036487;28;20017;-45
2020/12/29 04:58:52;;;;;;;31.30;18.17;;;2.10;99.90;;;;;;5039858;28;20021;-44
2020/12/29 05:01:22;;;;;;;30.45;16.58;;;2.00;99.90;;;;;;5035896;28;20482;-47
2020/12/29 05:03:49;;;;;;;27.50;15.40;;;2.00;99.90;;;;;;5034936;28;20030;-48
2020/12/29 05:06:16;;;;;;;27.08;14.35;;;2.10;99.90;;;;;;5035923;28;20021;-42
2020/12/29 05:08:46;;;;;;;31.35;15.75;;;2.00;99.90;;;;;;5036591;28;20017;-42
2020/12/29 05:11:13;;;;;;;25.45;13.85;;;2.00;99.90;;;;;;5032456;28;20035;-43
2020/12/29 05:13:39;;;;;;;26.38;14.90;;;2.00;99.90;;;;;;5031846;28;20024;-44
2020/12/29 05:16:04;;;;;;;25.45;12.93;;;2.00;99.90;;;;;;5031998;28;20028;-43
2020/12/29 05:18:29;;;;;;;34.42;17.45;;;2.00;99.90;;;;;;5033239;28;20056;-43
2020/12/29 05:20:56;;;;;;;26.95;14.15;;;2.00;99.90;;;;;;5037438;28;20029;-43
2020/12/29 05:23:22;;;;;;;29.38;14.63;;;1.90;99.90;;;;;;5035472;28;20032;-43
2020/12/29 05:25:47;;;;;;;29.45;16.02;;;2.00;99.90;;;;;;5035240;28;20382;-45
2020/12/29 05:28:13;;;;;;;36.78;18.98;;;1.90;99.90;;;;;;5042425;28;20053;-47
2020/12/29 05:30:40;;;;;;;24.85;14.07;;;1.90;99.90;;;;;;5033916;28;20036;-43
2020/12/29 05:33:13;;;;;;;28.98;15.63;;;1.90;99.90;;;;;;5032718;28;20506;-45
2020/12/29 05:35:41;;;;;;;35.15;18.42;;;1.80;99.90;;;;;;5031640;28;20482;-44
2020/12/29 05:38:07;;;;;;;35.55;19.35;;;1.80;99.90;;;;;;5038792;28;20028;-43
2020/12/29 05:40:34;;;;;;;32.33;18.35;;;1.80;99.90;;;;;;5038153;28;20055;-42
2020/12/29 05:43:00;;;;;;;32.92;18.25;;;1.80;99.90;;;;;;5035281;28;20117;-43
2020/12/29 05:45:32;;;;;;;31.08;18.08;;;1.80;99.90;;;;;;5035758;28;20040;-43
2020/12/29 05:47:59;;;;;;;29.90;16.23;;;1.80;99.90;;;;;;5033548;28;20425;-44
2020/12/29 05:50:26;;;;;;;34.80;17.30;;;1.70;99.90;;;;;;5043483;28;20040;-42
2020/12/29 05:53:06;;;;;;;33.15;16.08;;;1.70;99.90;;;;;;5044055;28;20034;-43
2020/12/29 05:55:32;;;;;;;28.33;15.82;;;1.70;99.90;;;;;;5037817;28;20105;-42
2020/12/29 05:58:03;;;;;;;21.15;10.85;;;1.60;99.90;;;;;;5043472;28;20406;-45
2020/12/29 06:00:28;;;;;;;28.50;13.20;;;1.50;99.90;;;;;;5037495;28;20025;-47
2020/12/29 06:02:56;;;;;;;29.02;13.43;;;1.40;99.90;;;;;;5036058;28;20563;-43
2020/12/29 06:05:25;;;;;;;31.52;16.55;;;1.40;99.90;;;;;;5038901;28;20029;-42
2020/12/29 06:07:54;;;;;;;33.78;15.75;;;1.30;99.90;;;;;;5034830;28;20371;-46
2020/12/29 06:10:19;;;;;;;27.38;12.75;;;1.20;99.90;;;;;;5030116;28;20030;-44
2020/12/29 06:12:52;;;;;;;22.35;11.45;;;1.10;99.90;;;;;;5034156;28;20395;-42
2020/12/29 06:15:34;;;;;;;23.65;11.57;;;1.00;99.90;;;;;;5031376;28;20506;-43
2020/12/29 06:18:07;;;;;;;23.67;12.27;;;0.90;99.90;;;;;;5030674;28;20022;-45
2020/12/29 06:20:50;;;;;;;24.30;11.18;;;0.90;99.90;;;;;;5039225;28;20032;-43
2020/12/29 06:23:18;;;;;;;38.05;19.02;;;0.80;99.90;;;;;;5040020;28;20044;-43
2020/12/29 06:25:46;;;;;;;25.27;13.23;;;0.70;99.90;;;;;;5036293;28;20025;-42
2020/12/29 06:28:17;;;;;;;27.08;13.43;;;0.70;99.90;;;;;;5031584;28;20121;-42
2020/12/29 06:30:43;;;;;;;26.90;13.80;;;0.70;99.90;;;;;;5030929;28;20026;-42
2020/12/29 06:33:08;;;;;;;27.58;12.52;;;0.60;99.90;;;;;;5036619;28;20095;-42
2020/12/29 06:35:34;;;;;;;28.38;14.50;;;0.60;99.90;;;;;;5040438;28;20478;-42
2020/12/29 06:38:24;;;;;;;26.98;13.15;;;0.50;99.90;;;;;;5038128;28;20028;-42
2020/12/29 06:40:51;;;;;;;24.55;12.32;;;0.50;99.90;;;;;;5037620;28;20042;-43
2020/12/29 06:43:16;;;;;;;29.10;14.25;;;0.50;99.90;;;;;;5034095;28;20100;-46
2020/12/29 06:45:42;;;;;;;25.30;12.52;;;0.40;99.90;;;;;;5041458;28;20029;-43
2020/12/29 06:48:16;;;;;;;24.77;11.23;;;0.40;99.90;;;;;;5041456;28;20094;-45
2020/12/29 06:50:41;;;;;;;33.58;14.55;;;0.30;99.90;;;;;;5038755;28;20049;-45
2020/12/29 06:53:07;;;;;;;32.40;13.00;;;0.20;99.90;;;;;;5041247;28;20025;-45
2020/12/29 06:55:43;;;;;;;23.05;10.65;;;0.10;99.90;;;;;;5037622;28;20041;-43
2020/12/29 06:58:10;;;;;;;23.13;10.77;;;0.10;99.90;;;;;;5040174;28;20024;-43
2020/12/29 07:00:36;;;;;;;23.35;11.15;;;0.00;99.90;;;;;;5032864;28;20063;-51
2020/12/29 07:03:02;;;;;;;22.23;11.07;;;0.00;99.90;;;;;;5033367;28;20032;-42
2020/12/29 07:05:36;;;;;;;27.13;11.63;;;-0.10;99.90;;;;;;5037889;28;20072;-44
2020/12/29 07:08:04;;;;;;;24.27;11.30;;;-0.10;99.90;;;;;;5043618;28;20076;-43
2020/12/29 07:10:38;;;;;;;19.88;10.35;;;-0.20;99.90;;;;;;5039730;28;20029;-44
2020/12/29 07:13:05;;;;;;;21.77;10.70;;;-0.30;99.90;;;;;;5045881;28;20037;-44
2020/12/29 07:15:32;;;;;;;27.92;11.48;;;-0.30;99.90;;;;;;5038331;28;20017;-43
2020/12/29 07:18:00;;;;;;;27.77;13.02;;;-0.30;99.90;;;;;;5053711;28;20020;-46
2020/12/29 07:20:31;;;;;;;29.77;12.68;;;-0.30;99.90;;;;;;5037202;28;20033;-45
2020/12/29 07:23:02;;;;;;;31.08;13.27;;;-0.40;99.90;;;;;;5038376;28;20029;-44
2020/12/29 07:25:29;;;;;;;28.13;12.63;;;-0.50;99.90;;;;;;5035347;28;20467;-47
2020/12/29 07:27:59;;;;;;;44.08;14.70;;;-0.50;99.90;;;;;;5033003;28;20038;-42
2020/12/29 07:30:26;;;;;;;33.00;14.30;;;-0.50;99.90;;;;;;5032837;28;20033;-47
2020/12/29 07:32:52;;;;;;;29.27;13.45;;;-0.50;99.90;;;;;;5032327;28;20025;-46
2020/12/29 07:35:18;;;;;;;27.38;12.30;;;-0.50;99.90;;;;;;5037552;28;20425;-44
2020/12/29 07:37:49;;;;;;;24.40;11.52;;;-0.50;99.90;;;;;;5036827;28;20394;-43
2020/12/29 07:40:14;;;;;;;20.52;10.60;;;-0.50;99.90;;;;;;5042057;28;20112;-45
2020/12/29 07:42:39;;;;;;;35.38;15.38;;;-0.50;99.90;;;;;;5046480;28;20037;-45
2020/12/29 07:45:05;;;;;;;28.73;13.45;;;-0.50;99.90;;;;;;5037133;28;20482;-44
2020/12/29 07:47:30;;;;;;;35.03;14.10;;;-0.50;99.90;;;;;;5041602;28;20049;-43
2020/12/29 07:49:59;;;;;;;33.58;14.93;;;-0.60;99.90;;;;;;5037330;28;20418;-49
2020/12/29 07:52:25;;;;;;;32.17;12.75;;;-0.60;99.90;;;;;;5040770;28;20021;-53
2020/12/29 07:55:10;;;;;;;32.45;13.40;;;-0.60;99.90;;;;;;5036586;28;20026;-45
2020/12/29 07:57:38;;;;;;;20.48;10.63;;;-0.60;99.90;;;;;;5034264;28;20026;-44
2020/12/29 08:00:12;;;;;;;34.47;13.27;;;-0.60;99.90;;;;;;5040406;28;20136;-45
2020/12/29 08:02:38;;;;;;;34.47;15.55;;;-0.60;99.90;;;;;;5042319;28;20033;-47
2020/12/29 08:05:05;;;;;;;34.92;15.57;;;-0.60;99.90;;;;;;5040593;28;20032;-47
2020/12/29 08:07:31;;;;;;;38.33;17.08;;;-0.60;99.90;;;;;;5032521;28;20033;-45
2020/12/29 08:09:56;;;;;;;34.05;14.32;;;-0.50;99.90;;;;;;5035767;28;20087;-45
2020/12/29 08:12:22;;;;;;;37.22;14.32;;;-0.50;99.90;;;;;;5038800;28;20104;-45
2020/12/29 08:14:48;;;;;;;26.90;12.63;;;-0.40;99.90;;;;;;5034320;28;20379;-44
2020/12/29 08:17:13;;;;;;;29.52;13.25;;;-0.40;99.90;;;;;;5037364;28;20101;-44
2020/12/29 08:19:39;;;;;;;28.85;13.80;;;-0.40;99.90;;;;;;5035145;28;20095;-46
2020/12/29 08:22:08;;;;;;;31.63;13.95;;;-0.30;99.90;;;;;;5033066;28;20060;-41
2020/12/29 08:24:34;;;;;;;30.52;14.25;;;-0.20;99.90;;;;;;5037102;28;20061;-44
2020/12/29 08:27:00;;;;;;;39.05;19.48;;;-0.20;99.90;;;;;;5034336;28;20736;-45
2020/12/29 08:29:26;;;;;;;44.33;19.42;;;-0.20;99.90;;;;;;5032113;28;20032;-45
2020/12/29 08:32:05;;;;;;;40.97;16.40;;;-0.10;99.90;;;;;;5035133;28;20025;-45
2020/12/29 08:34:32;;;;;;;34.30;16.13;;;-0.10;99.90;;;;;;5033529;28;20021;-44
2020/12/29 08:37:00;;;;;;;26.90;13.20;;;-0.10;99.90;;;;;;5040235;28;20112;-47
2020/12/29 08:40:06;;;;;;;34.53;14.98;;;0.00;99.90;;;;;;5037046;28;20088;-49
2020/12/29 08:42:34;;;;;;;42.83;17.80;;;0.00;99.90;;;;;;5032211;28;20044;-45
2020/12/29 08:45:05;;;;;;;37.90;18.13;;;0.10;99.90;;;;;;5031716;28;20029;-45
2020/12/29 08:47:33;;;;;;;33.50;16.27;;;0.20;99.90;;;;;;5033870;28;20028;-47
2020/12/29 08:50:18;;;;;;;33.88;16.15;;;0.20;99.90;;;;;;5036534;28;20080;-48
2020/12/29 08:52:45;;;;;;;35.20;16.38;;;0.30;99.90;;;;;;5039087;28;20034;-45
2020/12/29 08:55:27;;;;;;;41.03;19.45;;;0.30;99.90;;;;;;5032105;28;20381;-46
2020/12/29 08:57:57;;;;;;;33.88;15.88;;;0.40;99.90;;;;;;5028307;28;20516;-50
2020/12/29 09:00:25;;;;;;;31.95;16.08;;;0.50;99.90;;;;;;5034568;28;20029;-45
2020/12/29 09:02:50;;;;;;;43.40;20.08;;;0.50;99.90;;;;;;5029739;28;20112;-45
2020/12/29 09:05:29;;;;;;;33.65;16.90;;;0.60;99.90;;;;;;5037548;28;20170;-46
2020/12/29 09:07:56;;;;;;;41.83;21.33;;;0.60;99.90;;;;;;5039215;28;20108;-46
2020/12/29 09:10:22;;;;;;;52.63;25.65;;;0.60;99.90;;;;;;5029489;28;20057;-45
2020/12/29 09:12:48;;;;;;;34.28;17.10;;;0.60;99.90;;;;;;5041181;28;20040;-47
2020/12/29 09:15:25;;;;;;;40.60;20.42;;;0.70;99.90;;;;;;5036470;28;20025;-45
2020/12/29 09:17:59;;;;;;;35.67;17.20;;;0.70;99.90;;;;;;5035067;28;20364;-45
2020/12/29 09:20:29;;;;;;;34.47;17.77;;;0.80;99.90;;;;;;5040944;28;20028;-46
2020/12/29 09:22:58;;;;;;;42.92;22.65;;;0.80;99.90;;;;;;5039794;28;20116;-46
2020/12/29 09:25:26;;;;;;;35.50;15.75;;;0.90;99.90;;;;;;5035821;28;20455;-47
2020/12/29 09:28:21;;;;;;;46.08;22.73;;;0.90;99.90;;;;;;5035858;28;20541;-45
2020/12/29 09:30:58;;;;;;;34.10;17.92;;;1.00;99.90;;;;;;5035241;28;20047;-45
2020/12/29 09:33:24;;;;;;;31.88;14.30;;;1.00;99.90;;;;;;5038633;28;20025;-48
2020/12/29 09:35:50;;;;;;;24.75;13.00;;;1.10;99.90;;;;;;5038075;28;20036;-47
2020/12/29 09:38:18;;;;;;;25.60;12.95;;;1.20;99.90;;;;;;5033416;28;20025;-47
2020/12/29 09:40:45;;;;;;;27.23;14.10;;;1.20;99.90;;;;;;5036365;28;20025;-45
2020/12/29 09:43:11;;;;;;;29.33;15.05;;;1.30;99.90;;;;;;5045138;28;20029;-42
2020/12/29 09:45:37;;;;;;;33.05;15.68;;;1.30;99.90;;;;;;5037743;28;20072;-44
2020/12/29 09:48:02;;;;;;;25.63;13.25;;;1.40;99.90;;;;;;5035678;28;20061;-46
2020/12/29 09:50:28;;;;;;;32.70;18.80;;;1.60;99.90;;;;;;5038224;28;20037;-45
2020/12/29 09:52:53;;;;;;;31.23;16.63;;;1.70;99.90;;;;;;5035536;28;20021;-45
2020/12/29 09:55:19;;;;;;;32.47;17.80;;;1.80;99.90;;;;;;5033097;28;20026;-43
2020/12/29 09:57:44;;;;;;;30.13;14.88;;;1.90;99.90;;;;;;5033838;28;20039;-42
2020/12/29 10:00:10;;;;;;;26.05;13.88;;;2.00;99.90;;;;;;5033366;28;20100;-45
2020/12/29 10:02:35;;;;;;;27.65;14.73;;;2.10;99.90;;;;;;5033057;28;20401;-44
2020/12/29 10:05:01;;;;;;;25.10;13.38;;;2.30;99.90;;;;;;5034494;28;20665;-43
2020/12/29 10:07:27;;;;;;;29.27;16.90;;;2.40;99.90;;;;;;5046719;28;20045;-43
2020/12/29 10:09:52;;;;;;;29.40;14.52;;;2.50;99.90;;;;;;5037457;28;20028;-42
2020/12/29 10:12:18;;;;;;;27.00;14.82;;;2.70;99.90;;;;;;5047775;28;20116;-45
2020/12/29 10:14:44;;;;;;;21.23;12.05;;;2.90;99.90;;;;;;5040892;28;20025;-42
2020/12/29 10:17:10;;;;;;;27.70;15.77;;;3.00;99.90;;;;;;5052237;28;20066;-42
2020/12/29 10:19:35;;;;;;;21.20;12.45;;;3.20;99.90;;;;;;5057501;28;20612;-44
2020/12/29 10:22:01;;;;;;;31.27;15.60;;;3.40;99.90;;;;;;5045410;28;20029;-42
2020/12/29 10:24:29;;;;;;;28.92;16.70;;;3.50;99.90;;;;;;5041124;28;20032;-42
2020/12/29 10:26:55;;;;;;;29.10;16.38;;;3.50;99.90;;;;;;5043792;28;20032;-43
2020/12/29 10:29:20;;;;;;;28.05;16.10;;;3.60;99.90;;;;;;5049203;28;20036;-45
2020/12/29 10:31:47;;;;;;;24.63;12.38;;;3.60;99.90;;;;;;5039147;28;20382;-45
2020/12/29 10:34:14;;;;;;;23.88;12.98;;;3.60;99.90;;;;;;5040037;28;20030;-45
2020/12/29 10:36:40;;;;;;;24.92;13.98;;;3.60;99.90;;;;;;5040059;28;20512;-48
2020/12/29 10:39:07;;;;;;;23.20;12.80;;;3.60;99.90;;;;;;5043550;28;20032;-44
2020/12/29 10:41:34;;;;;;;16.38;9.40;;;3.50;99.90;;;;;;5046008;28;20021;-46
2020/12/29 10:44:00;;;;;;;20.23;11.27;;;3.50;99.90;;;;;;5040440;28;20477;-46
2020/12/29 10:46:26;;;;;;;19.02;11.15;;;3.40;99.90;;;;;;5041691;28;20028;-47
2020/12/29 10:48:52;;;;;;;24.85;12.75;;;3.30;99.90;;;;;;5040347;28;20111;-47
2020/12/29 10:51:18;;;;;;;17.35;10.27;;;3.20;99.90;;;;;;5043546;28;20099;-47
2020/12/29 10:53:43;;;;;;;17.13;9.85;;;3.30;99.90;;;;;;5041607;28;20474;-44
2020/12/29 10:56:09;;;;;;;19.98;10.15;;;3.50;99.90;;;;;;5041675;28;20040;-46
2020/12/29 10:58:36;;;;;;;16.17;9.43;;;3.60;99.90;;;;;;5038973;28;20541;-50
2020/12/29 11:01:01;;;;;;;17.75;10.15;;;3.70;99.90;;;;;;5043887;28;20029;-50
2020/12/29 11:03:27;;;;;;;17.70;9.55;;;3.80;99.90;;;;;;5041778;28;20067;-46
2020/12/29 11:05:52;;;;;;;14.65;8.23;;;3.80;99.90;;;;;;5044149;28;20078;-51
2020/12/29 11:08:18;;;;;;;15.30;8.65;;;3.80;99.90;;;;;;5039771;28;20069;-46
2020/12/29 11:10:43;;;;;;;14.98;8.23;;;3.90;99.90;;;;;;5043181;28;20057;-46
2020/12/29 11:13:09;;;;;;;14.93;8.63;;;3.90;99.90;;;;;;5042018;28;20204;-44
2020/12/29 11:15:35;;;;;;;16.67;8.88;;;4.00;99.90;;;;;;5038071;28;20028;-46
2020/12/29 11:18:00;;;;;;;17.92;9.98;;;4.00;99.90;;;;;;5037440;28;20067;-46
2020/12/29 11:20:26;;;;;;;22.58;12.23;;;4.00;99.90;;;;;;5037557;28;20029;-47
2020/12/29 11:22:51;;;;;;;15.18;8.75;;;4.10;99.90;;;;;;5039202;28;20431;-45
2020/12/29 11:25:17;;;;;;;17.85;9.70;;;4.10;99.90;;;;;;5038764;28;20044;-46
2020/12/29 11:27:42;;;;;;;17.10;9.82;;;4.10;99.90;;;;;;5041624;28;20029;-48
2020/12/29 11:30:08;;;;;;;13.38;8.35;;;4.20;99.90;;;;;;5038609;28;20038;-48
2020/12/29 11:32:33;;;;;;;13.35;7.85;;;4.20;99.90;;;;;;5039478;28;20402;-46
2020/12/29 11:34:59;;;;;;;15.43;10.00;;;4.20;99.90;;;;;;5047806;28;20029;-46
2020/12/29 11:37:24;;;;;;;13.32;8.27;;;4.20;99.90;;;;;;5047927;28;20162;-44
2020/12/29 11:39:50;;;;;;;19.23;9.95;;;4.10;99.90;;;;;;5035109;28;20134;-48
2020/12/29 11:42:15;;;;;;;14.75;8.50;;;4.20;99.90;;;;;;5051729;28;20032;-45
2020/12/29 11:44:41;;;;;;;16.15;9.38;;;4.20;99.90;;;;;;5042484;28;20212;-45
2020/12/29 11:47:06;;;;;;;14.63;8.43;;;4.20;99.90;;;;;;5046527;28;20437;-48
2020/12/29 11:49:32;;;;;;;16.45;9.15;;;4.20;99.90;;;;;;5039232;28;20083;-48
2020/12/29 11:51:57;;;;;;;14.52;8.02;;;4.30;99.90;;;;;;5051671;28;20527;-48
2020/12/29 11:54:22;;;;;;;14.60;8.50;;;4.30;99.90;;;;;;5044151;28;20047;-45
2020/12/29 11:56:48;;;;;;;20.20;12.20;;;4.30;99.90;;;;;;5046909;28;20393;-44
2020/12/29 11:59:14;;;;;;;13.65;8.32;;;4.40;99.90;;;;;;5035890;28;20037;-44
2020/12/29 12:01:39;;;;;;;18.73;10.98;;;4.40;99.90;;;;;;5048552;28;20882;-46
2020/12/29 12:04:05;;;;;;;14.95;9.02;;;4.30;99.90;;;;;;5040798;28;20104;-46
2020/12/29 12:06:34;;;;;;;14.18;8.27;;;4.30;99.90;;;;;;5050464;28;20050;-45
2020/12/29 12:08:59;;;;;;;12.85;7.45;;;4.30;99.90;;;;;;5040945;28;20021;-47
2020/12/29 12:11:28;;;;;;;14.85;8.30;;;4.40;99.90;;;;;;5039703;28;20036;-47
2020/12/29 12:13:54;;;;;;;12.25;6.63;;;4.30;99.90;;;;;;5036724;28;20088;-44
2020/12/29 12:16:19;;;;;;;10.25;6.50;;;4.40;99.90;;;;;;5037481;28;20025;-44
2020/12/29 12:18:45;;;;;;;13.60;7.53;;;4.40;99.90;;;;;;5037591;28;20025;-45
2020/12/29 12:21:10;;;;;;;16.27;10.32;;;4.40;99.90;;;;;;5042133;28;20025;-45
2020/12/29 12:23:36;;;;;;;14.20;8.40;;;4.40;99.90;;;;;;5035763;28;20033;-47
2020/12/29 12:26:01;;;;;;;12.63;7.47;;;4.40;99.90;;;;;;5041250;28;20036;-46
2020/12/29 12:28:27;;;;;;;12.23;7.20;;;4.40;99.90;;;;;;5042425;28;20042;-47
2020/12/29 12:30:53;;;;;;;11.77;7.85;;;4.40;99.90;;;;;;5038802;28;20490;-43
2020/12/29 12:33:18;;;;;;;11.27;7.43;;;4.40;99.90;;;;;;5049039;28;20030;-48
2020/12/29 12:35:44;;;;;;;12.30;6.53;;;4.40;99.90;;;;;;5036711;28;20188;-47